Boyne City, MI

12:59 AM EST on November 23, 2014 (GMT -0500)
Charlevoix Municipal | Change Station
CLOSE
Current Station
Airport
Location: Charlevoix,
Elevation: 669 ft
Nearby Weather Stations

Elev 669 ft 45.30 °N, 85.27 °W | Updated 4 minutes ago

Overcast
Overcast
40 °F
Feels Like 37 °F
N
5
Wind Variable Wind from South

Today
High -- | Low -- °F
--% Chance of Precip.
Yesterday
High -- | Low -- °F
Precip. -- in
7:49 AM 5:03 PM
New Moon, 1% visible
Pressure 29.84 in
Visibility 5.0 miles
Clouds Overcast 1100 ft
Windchill 37 °F
Dew Point 40 °F
Humidity 100%
Rainfall 0.00 in
Snow Depth Not available.
UV 0 out of 12
Pollen .10 out of 12
Air Quality Not available.
Flu Activity Not available.
METAR KCVX 230555Z AUTO 19004KT 5SM BR OVC011 05/05 A2984 RMK AO2 T00460046 10048 20042 400481005

More Conditions Fewer Conditions

Pressure 29.84 in
Visibility 5.0 miles
Clouds Overcast 1100 ft
Windchill 37 °F
Dew Point 40 °F
Humidity 100%
Rainfall 0.00 in
Snow Depth Not available.
UV 0 out of 12
Pollen .10 out of 12
Air Quality Not available.
Flu Activity Not available.
METAR KCVX 230555Z AUTO 19004KT 5SM BR OVC011 05/05 A2984 RMK AO2 T00460046 10048 20042 400481005

More Conditions Fewer Conditions

Nowcast | as of 12:00 am EST on November 23, 2014

At 1 am...cloudy. Patchy fog. Patchy drizzle. Temperature 42. South winds 7 mph. At 3 am...cloudy. Patchy fog. Patchy drizzle. Temperature 42. South winds 7 mph. At 5 am...cloudy. Patchy fog. Patchy drizzle. Temperature 42. South winds 9 mph. At 7 am...areas of fog. Occasional rain or drizzle. Temperature 43. South winds 11 mph.

×

10-Day Weather Forecast

Almanac

Astronomy

Nov. 23, 2014 Rise Set
Actual Time
Civil Twilight
Nautical Twilight
Astronomical Twilight
Moon
Length of Visible Light
Length of Day
Tomorrow will be .
, % of the Moon is Illuminated

Today's Extremes

State Highs State Lows

Community

WunderPhotos

Upload Photos

1,773,017 photos uploaded!

WunderBlogs® & News

Nearby

Air Quality

  Air Quality AQ Index Pollutant
Not available.

Snow Depth

Station Depth Elevation

Earthquake Activity

City Distance Mag. Time & Date
Minimum magnitude displayed is 2.5.

Coastal Water Temperatures

Place Temperature

Nearby Weather Stations